sensor_id;sensor_type;location;lat;lon;timestamp;pressure;altitude;pressure_sealevel;temperature;humidity
62680;BME280;68213;40.528;44.712;2023-09-19T00:00:22;80907.50;;;4.84;75.06
62680;BME280;68213;40.528;44.712;2023-09-19T00:01:24;80908.03;;;4.82;75.08
62680;BME280;68213;40.528;44.712;2023-09-19T00:02:24;80910.09;;;4.84;75.28
62680;BME280;68213;40.528;44.712;2023-09-19T00:03:25;80907.50;;;4.84;75.49
62680;BME280;68213;40.528;44.712;2023-09-19T00:04:26;80910.09;;;4.84;75.56
62680;BME280;68213;40.528;44.712;2023-09-19T00:05:33;80909.41;;;4.83;75.50
62680;BME280;68213;40.528;44.712;2023-09-19T00:06:38;80905.94;;;4.81;75.51
62680;BME280;68213;40.528;44.712;2023-09-19T00:07:39;80905.25;;;4.80;75.51
62680;BME280;68213;40.528;44.712;2023-09-19T00:08:41;80900.72;;;4.81;75.59
62680;BME280;68213;40.528;44.712;2023-09-19T00:09:47;80909.78;;;4.80;75.68
62680;BME280;68213;40.528;44.712;2023-09-19T00:10:48;80907.31;;;4.82;75.66
62680;BME280;68213;40.528;44.712;2023-09-19T00:11:49;80904.19;;;4.83;75.47
62680;BME280;68213;40.528;44.712;2023-09-19T00:12:51;80900.44;;;4.76;75.20
62680;BME280;68213;40.528;44.712;2023-09-19T00:13:53;80903.34;;;4.81;75.42
62680;BME280;68213;40.528;44.712;2023-09-19T00:14:55;80903.50;;;4.83;75.65
62680;BME280;68213;40.528;44.712;2023-09-19T00:15:57;80884.88;;;4.69;75.62
62680;BME280;68213;40.528;44.712;2023-09-19T00:16:59;80904.19;;;4.83;75.70
62680;BME280;68213;40.528;44.712;2023-09-19T00:18:01;80833.44;;;4.34;75.95
62680;BME280;68213;40.528;44.712;2023-09-19T00:19:02;80902.13;;;4.82;75.56
62680;BME280;68213;40.528;44.712;2023-09-19T00:20:11;80900.72;;;4.81;75.60
62680;BME280;68213;40.528;44.712;2023-09-19T00:21:13;80908.94;;;4.77;75.75
62680;BME280;68213;40.528;44.712;2023-09-19T00:22:15;80902.34;;;4.76;76.13
62680;BME280;68213;40.528;44.712;2023-09-19T00:23:16;80910.16;;;4.76;76.25
62680;BME280;68213;40.528;44.712;2023-09-19T00:24:17;80902.19;;;4.74;76.14
62680;BME280;68213;40.528;44.712;2023-09-19T00:25:18;80901.66;;;4.75;76.24
62680;BME280;68213;40.528;44.712;2023-09-19T00:26:19;80907.41;;;4.74;76.40
62680;BME280;68213;40.528;44.712;2023-09-19T00:27:21;80903.41;;;4.73;76.54
62680;BME280;68213;40.528;44.712;2023-09-19T00:28:22;80905.72;;;4.69;76.56
62680;BME280;68213;40.528;44.712;2023-09-19T00:29:23;80896.72;;;4.62;76.73
62680;BME280;68213;40.528;44.712;2023-09-19T00:30:24;80903.16;;;4.61;77.09
62680;BME280;68213;40.528;44.712;2023-09-19T00:31:25;80911.97;;;4.66;76.97
62680;BME280;68213;40.528;44.712;2023-09-19T00:32:25;80908.16;;;4.67;76.62
62680;BME280;68213;40.528;44.712;2023-09-19T00:33:32;80887.97;;;4.50;76.63
62680;BME280;68213;40.528;44.712;2023-09-19T00:34:35;80910.22;;;4.68;76.60
62680;BME280;68213;40.528;44.712;2023-09-19T00:35:36;80904.34;;;4.68;76.90
62680;BME280;68213;40.528;44.712;2023-09-19T00:36:37;80908.47;;;4.71;76.77
62680;BME280;68213;40.528;44.712;2023-09-19T00:37:39;80910.94;;;4.69;76.77
62680;BME280;68213;40.528;44.712;2023-09-19T00:38:43;80905.19;;;4.70;76.87
62680;BME280;68213;40.528;44.712;2023-09-19T00:39:46;80904.47;;;4.70;77.09
62680;BME280;68213;40.528;44.712;2023-09-19T00:40:49;80899.44;;;4.72;76.92
62680;BME280;68213;40.528;44.712;2023-09-19T00:41:51;80907.25;;;4.72;77.02
62680;BME280;68213;40.528;44.712;2023-09-19T00:42:57;80902.03;;;4.72;76.92
62680;BME280;68213;40.528;44.712;2023-09-19T00:44:02;80904.09;;;4.73;76.63
62680;BME280;68213;40.528;44.712;2023-09-19T00:45:05;80875.09;;;4.52;76.91
62680;BME280;68213;40.528;44.712;2023-09-19T00:46:06;80891.72;;;4.56;77.31
62680;BME280;68213;40.528;44.712;2023-09-19T00:47:08;80898.41;;;4.67;77.21
62680;BME280;68213;40.528;44.712;2023-09-19T00:48:09;80892.59;;;4.59;77.28
62680;BME280;68213;40.528;44.712;2023-09-19T00:49:11;80906.22;;;4.67;77.41
62680;BME280;68213;40.528;44.712;2023-09-19T00:50:13;80902.25;;;4.66;77.73
62680;BME280;68213;40.528;44.712;2023-09-19T00:51:15;80903.63;;;4.67;77.61
62680;BME280;68213;40.528;44.712;2023-09-19T00:53:32;80897.03;;;4.66;77.01
62680;BME280;68213;40.528;44.712;2023-09-19T00:54:34;80898.59;;;4.69;77.53
62680;BME280;68213;40.528;44.712;2023-09-19T00:55:36;80898.59;;;4.69;77.53
62680;BME280;68213;40.528;44.712;2023-09-19T00:56:38;80893.91;;;4.68;77.49
62680;BME280;68213;40.528;44.712;2023-09-19T00:57:40;80873.03;;;4.50;77.56
62680;BME280;68213;40.528;44.712;2023-09-19T00:58:41;80883.72;;;4.62;77.10
62680;BME280;68213;40.528;44.712;2023-09-19T00:59:42;80901.88;;;4.70;77.44
62680;BME280;68213;40.528;44.712;2023-09-19T01:00:43;80880.19;;;4.50;77.42
62680;BME280;68213;40.528;44.712;2023-09-19T01:01:45;80882.91;;;4.52;77.66
62680;BME280;68213;40.528;44.712;2023-09-19T01:02:47;80906.22;;;4.67;77.79
62680;BME280;68213;40.528;44.712;2023-09-19T01:03:48;80899.50;;;4.64;77.85
62680;BME280;68213;40.528;44.712;2023-09-19T01:04:51;80894.28;;;4.64;77.66
62680;BME280;68213;40.528;44.712;2023-09-19T01:05:51;80881.88;;;4.55;77.64
62680;BME280;68213;40.528;44.712;2023-09-19T01:06:53;80899.50;;;4.64;77.70
62680;BME280;68213;40.528;44.712;2023-09-19T01:07:55;80868.38;;;4.49;77.44
62680;BME280;68213;40.528;44.712;2023-09-19T01:08:55;80902.56;;;4.70;77.40
62680;BME280;68213;40.528;44.712;2023-09-19T01:10:00;80899.44;;;4.72;77.52
62680;BME280;68213;40.528;44.712;2023-09-19T01:12:12;80895.75;;;4.75;77.31
62680;BME280;68213;40.528;44.712;2023-09-19T01:13:29;80895.53;;;4.81;77.12
62680;BME280;68213;40.528;44.712;2023-09-19T01:14:47;80901.59;;;4.83;77.10
62680;BME280;68213;40.528;44.712;2023-09-19T01:15:59;80898.28;;;4.83;77.01
62680;BME280;68213;40.528;44.712;2023-09-19T01:17:14;80898.13;;;4.81;77.22
62680;BME280;68213;40.528;44.712;2023-09-19T01:21:52;80894.59;;;4.68;78.00
62680;BME280;68213;40.528;44.712;2023-09-19T01:26:26;80898.88;;;4.73;77.64
62680;BME280;68213;40.528;44.712;2023-09-19T01:30:26;80901.81;;;4.78;77.62
62680;BME280;68213;40.528;44.712;2023-09-19T01:31:31;80899.88;;;4.78;77.52
62680;BME280;68213;40.528;44.712;2023-09-19T01:32:36;80897.28;;;4.78;77.25
62680;BME280;68213;40.528;44.712;2023-09-19T01:34:07;80891.69;;;4.82;77.28
62680;BME280;68213;40.528;44.712;2023-09-19T01:35:09;80896.78;;;4.80;77.19
62680;BME280;68213;40.528;44.712;2023-09-19T01:36:13;80899.50;;;4.82;77.16
62680;BME280;68213;40.528;44.712;2023-09-19T01:37:14;80900.72;;;4.81;77.34
62680;BME280;68213;40.528;44.712;2023-09-19T01:38:20;80899.38;;;4.80;77.24
62680;BME280;68213;40.528;44.712;2023-09-19T01:39:20;80895.53;;;4.81;77.06
62680;BME280;68213;40.528;44.712;2023-09-19T01:40:22;80894.16;;;4.80;77.26
62680;BME280;68213;40.528;44.712;2023-09-19T01:42:45;80901.44;;;4.81;77.14
62680;BME280;68213;40.528;44.712;2023-09-19T01:43:48;80904.03;;;4.81;77.10
62680;BME280;68213;40.528;44.712;2023-09-19T01:46:30;80904.88;;;4.84;77.36
62680;BME280;68213;40.528;44.712;2023-09-19T01:47:46;80904.88;;;4.84;77.58
62680;BME280;68213;40.528;44.712;2023-09-19T01:48:59;80899.69;;;4.84;77.60
62680;BME280;68213;40.528;44.712;2023-09-19T01:50:20;80897.22;;;4.86;77.58
62680;BME280;68213;40.528;44.712;2023-09-19T01:51:51;80894.47;;;4.84;77.63
62680;BME280;68213;40.528;44.712;2023-09-19T01:53:02;80898.00;;;4.79;77.91
62680;BME280;68213;40.528;44.712;2023-09-19T01:54:12;80896.59;;;4.78;78.13
62680;BME280;68213;40.528;44.712;2023-09-19T01:55:14;80900.44;;;4.76;78.09
62680;BME280;68213;40.528;44.712;2023-09-19T01:56:31;80899.03;;;4.75;78.20
62680;BME280;68213;40.528;44.712;2023-09-19T01:57:48;80903.78;;;4.69;78.57
62680;BME280;68213;40.528;44.712;2023-09-19T01:58:56;80903.41;;;4.73;78.77
62680;BME280;68213;40.528;44.712;2023-09-19T02:00:06;80907.94;;;4.72;78.65
62680;BME280;68213;40.528;44.712;2023-09-19T02:01:08;80905.72;;;4.69;78.80
62680;BME280;68213;40.528;44.712;2023-09-19T02:02:12;80888.66;;;4.50;78.90
62680;BME280;68213;40.528;44.712;2023-09-19T02:03:14;80903.63;;;4.67;78.97
62680;BME280;68213;40.528;44.712;2023-09-19T02:04:16;80903.63;;;4.67;79.08
62680;BME280;68213;40.528;44.712;2023-09-19T02:05:24;80891.34;;;4.60;78.83
62680;BME280;68213;40.528;44.712;2023-09-19T02:06:25;80907.06;;;4.70;78.90
62680;BME280;68213;40.528;44.712;2023-09-19T02:07:26;80893.81;;;4.58;78.81
62680;BME280;68213;40.528;44.712;2023-09-19T02:08:27;80911.22;;;4.73;78.66
62680;BME280;68213;40.528;44.712;2023-09-19T02:09:29;80903.94;;;4.71;78.79
62680;BME280;68213;40.528;44.712;2023-09-19T02:10:30;80906.56;;;4.71;78.52
62680;BME280;68213;40.528;44.712;2023-09-19T02:11:30;80905.34;;;4.72;78.64
62680;BME280;68213;40.528;44.712;2023-09-19T02:12:32;80903.09;;;4.69;78.64
62680;BME280;68213;40.528;44.712;2023-09-19T02:13:35;80911.91;;;4.73;78.64
62680;BME280;68213;40.528;44.712;2023-09-19T02:14:37;80912.28;;;4.70;78.80
62680;BME280;68213;40.528;44.712;2023-09-19T02:15:38;80911.59;;;4.69;78.95
62680;BME280;68213;40.528;44.712;2023-09-19T02:16:39;80913.00;;;4.70;78.96
62680;BME280;68213;40.528;44.712;2023-09-19T02:17:39;80917.19;;;4.66;79.04
62680;BME280;68213;40.528;44.712;2023-09-19T02:18:40;80917.34;;;4.68;79.00
62680;BME280;68213;40.528;44.712;2023-09-19T02:19:41;80918.19;;;4.70;78.83
62680;BME280;68213;40.528;44.712;2023-09-19T02:20:42;80904.00;;;4.64;78.91
62680;BME280;68213;40.528;44.712;2023-09-19T02:21:42;80920.44;;;4.74;78.95
62680;BME280;68213;40.528;44.712;2023-09-19T02:22:43;80921.81;;;4.75;79.12
62680;BME280;68213;40.528;44.712;2023-09-19T02:24:05;80921.94;;;4.77;79.06
62680;BME280;68213;40.528;44.712;2023-09-19T02:25:06;80917.44;;;4.78;78.97
62680;BME280;68213;40.528;44.712;2023-09-19T02:26:08;80924.72;;;4.79;79.04
62680;BME280;68213;40.528;44.712;2023-09-19T02:27:08;80924.19;;;4.81;78.90
62680;BME280;68213;40.528;44.712;2023-09-19T02:28:09;80921.56;;;4.81;78.60
62680;BME280;68213;40.528;44.712;2023-09-19T02:29:10;80918.44;;;4.82;78.63
62680;BME280;68213;40.528;44.712;2023-09-19T02:30:13;80917.91;;;4.84;78.68
62680;BME280;68213;40.528;44.712;2023-09-19T02:32:25;80922.56;;;4.85;78.59
62680;BME280;68213;40.528;44.712;2023-09-19T02:33:26;80918.91;;;4.88;78.41
62680;BME280;68213;40.528;44.712;2023-09-19T02:34:27;80915.59;;;4.88;78.10
62680;BME280;68213;40.528;44.712;2023-09-19T02:35:28;80920.75;;;4.96;78.09
62680;BME280;68213;40.528;44.712;2023-09-19T02:36:33;80920.38;;;4.99;77.99
62680;BME280;68213;40.528;44.712;2023-09-19T02:37:34;80924.38;;;5.00;77.85
62680;BME280;68213;40.528;44.712;2023-09-19T02:38:35;80929.75;;;5.02;77.97
62680;BME280;68213;40.528;44.712;2023-09-19T02:39:37;80926.06;;;5.05;78.09
62680;BME280;68213;40.528;44.712;2023-09-19T02:40:38;80932.09;;;5.08;77.89
62680;BME280;68213;40.528;44.712;2023-09-19T02:41:42;80934.88;;;5.10;77.86
62680;BME280;68213;40.528;44.712;2023-09-19T02:42:43;80927.34;;;5.14;77.74
62680;BME280;68213;40.528;44.712;2023-09-19T02:43:47;80925.75;;;5.19;77.45
62680;BME280;68213;40.528;44.712;2023-09-19T02:44:48;80935.78;;;5.22;77.52
62680;BME280;68213;40.528;44.712;2023-09-19T02:45:49;80910.88;;;5.12;77.28
62680;BME280;68213;40.528;44.712;2023-09-19T02:46:50;80937.25;;;5.33;77.05
62680;BME280;68213;40.528;44.712;2023-09-19T02:47:51;80927.16;;;5.37;77.06
62680;BME280;68213;40.528;44.712;2023-09-19T02:48:52;80934.59;;;5.41;76.88
62680;BME280;68213;40.528;44.712;2023-09-19T02:49:52;80940.47;;;5.42;76.99
62680;BME280;68213;40.528;44.712;2023-09-19T02:50:53;80934.19;;;5.45;76.91
62680;BME280;68213;40.528;44.712;2023-09-19T02:51:54;80938.50;;;5.50;76.89
62680;BME280;68213;40.528;44.712;2023-09-19T02:52:55;80929.06;;;5.54;76.86
62680;BME280;68213;40.528;44.712;2023-09-19T02:53:56;80933.88;;;5.58;76.72
62680;BME280;68213;40.528;44.712;2023-09-19T02:54:56;80929.88;;;5.57;76.82
62680;BME280;68213;40.528;44.712;2023-09-19T02:55:57;80930.34;;;5.63;76.94
62680;BME280;68213;40.528;44.712;2023-09-19T02:56:59;80934.50;;;5.66;76.67
62680;BME280;68213;40.528;44.712;2023-09-19T02:58:00;80930.13;;;5.69;76.57
62680;BME280;68213;40.528;44.712;2023-09-19T02:59:02;80933.56;;;5.71;76.50
62680;BME280;68213;40.528;44.712;2023-09-19T03:00:04;80932.50;;;5.75;76.42
62680;BME280;68213;40.528;44.712;2023-09-19T03:01:10;80934.88;;;5.80;76.55
62680;BME280;68213;40.528;44.712;2023-09-19T03:02:15;80931.00;;;5.81;76.33
62680;BME280;68213;40.528;44.712;2023-09-19T03:03:16;80939.84;;;5.86;76.10
62680;BME280;68213;40.528;44.712;2023-09-19T03:04:17;80940.81;;;5.91;76.04
62680;BME280;68213;40.528;44.712;2023-09-19T03:05:21;80940.59;;;5.96;75.76
62680;BME280;68213;40.528;44.712;2023-09-19T03:06:22;80935.69;;;6.00;75.89
62680;BME280;68213;40.528;44.712;2023-09-19T03:07:24;80941.91;;;6.05;75.64
62680;BME280;68213;40.528;44.712;2023-09-19T03:08:25;80940.13;;;6.08;76.06
62680;BME280;68213;40.528;44.712;2023-09-19T03:09:26;80939.06;;;6.11;75.77
62680;BME280;68213;40.528;44.712;2023-09-19T03:10:27;80939.34;;;6.15;75.80
62680;BME280;68213;40.528;44.712;2023-09-19T03:11:28;80944.16;;;6.18;75.72
62680;BME280;68213;40.528;44.712;2023-09-19T03:12:29;80941.16;;;6.22;75.49
62680;BME280;68213;40.528;44.712;2023-09-19T03:13:29;80935.94;;;6.22;75.45
62680;BME280;68213;40.528;44.712;2023-09-19T03:14:31;80939.66;;;6.19;75.75
62680;BME280;68213;40.528;44.712;2023-09-19T03:15:36;80941.88;;;6.23;75.54
62680;BME280;68213;40.528;44.712;2023-09-19T03:16:39;80939.03;;;6.28;75.37
62680;BME280;68213;40.528;44.712;2023-09-19T03:17:43;80939.47;;;6.34;75.28
62680;BME280;68213;40.528;44.712;2023-09-19T03:18:44;80943.72;;;6.40;75.18
62680;BME280;68213;40.528;44.712;2023-09-19T03:19:45;80947.34;;;6.44;74.91
62680;BME280;68213;40.528;44.712;2023-09-19T03:20:54;80947.94;;;6.53;74.95
62680;BME280;68213;40.528;44.712;2023-09-19T03:21:55;80952.91;;;6.58;74.71
62680;BME280;68213;40.528;44.712;2023-09-19T03:22:58;80955.59;;;6.50;75.73
62680;BME280;68213;40.528;44.712;2023-09-19T03:23:58;80955.91;;;6.55;76.13
62680;BME280;68213;40.528;44.712;2023-09-19T03:24:59;80944.50;;;6.60;76.23
62680;BME280;68213;40.528;44.712;2023-09-19T03:26:01;80950.28;;;6.58;76.17
62680;BME280;68213;40.528;44.712;2023-09-19T03:27:01;80954.16;;;6.67;75.71
62680;BME280;68213;40.528;44.712;2023-09-19T03:28:03;80923.59;;;6.50;74.95
62680;BME280;68213;40.528;44.712;2023-09-19T03:29:08;80931.72;;;6.64;74.54
62680;BME280;68213;40.528;44.712;2023-09-19T03:30:10;80952.03;;;6.83;74.67
62680;BME280;68213;40.528;44.712;2023-09-19T03:31:13;80954.22;;;6.77;75.91
62680;BME280;68213;40.528;44.712;2023-09-19T03:32:14;80952.97;;;6.78;76.11
62680;BME280;68213;40.528;44.712;2023-09-19T03:33:17;80955.19;;;6.81;76.33
62680;BME280;68213;40.528;44.712;2023-09-19T03:34:18;80952.44;;;6.89;76.44
62680;BME280;68213;40.528;44.712;2023-09-19T03:35:22;80952.44;;;6.89;77.94
62680;BME280;68213;40.528;44.712;2023-09-19T03:36:23;80955.91;;;6.92;76.46
62680;BME280;68213;40.528;44.712;2023-09-19T03:37:23;80958.41;;;6.99;78.21
62680;BME280;68213;40.528;44.712;2023-09-19T03:38:25;80958.31;;;7.07;77.30
62680;BME280;68213;40.528;44.712;2023-09-19T03:39:26;80950.34;;;7.15;77.26
62680;BME280;68213;40.528;44.712;2023-09-19T03:40:26;80956.69;;;7.22;77.24
62680;BME280;68213;40.528;44.712;2023-09-19T03:41:27;80938.50;;;7.14;76.66
62680;BME280;68213;40.528;44.712;2023-09-19T03:42:28;80945.28;;;7.27;76.04
62680;BME280;68213;40.528;44.712;2023-09-19T03:43:29;80953.56;;;7.43;76.21
62680;BME280;68213;40.528;44.712;2023-09-19T03:44:32;80952.22;;;7.52;74.86
62680;BME280;68213;40.528;44.712;2023-09-19T03:45:33;80956.22;;;7.62;73.05
62680;BME280;68213;40.528;44.712;2023-09-19T03:46:34;80955.50;;;7.72;72.40
62680;BME280;68213;40.528;44.712;2023-09-19T03:47:35;80956.06;;;7.80;72.12
62680;BME280;68213;40.528;44.712;2023-09-19T03:48:37;80968.47;;;7.89;71.71
62680;BME280;68213;40.528;44.712;2023-09-19T03:49:38;80966.41;;;7.98;71.49
62680;BME280;68213;40.528;44.712;2023-09-19T03:50:39;80956.50;;;8.06;71.21
62680;BME280;68213;40.528;44.712;2023-09-19T03:51:39;80957.59;;;8.13;70.50
62680;BME280;68213;40.528;44.712;2023-09-19T03:52:41;80955.41;;;8.19;69.59
62680;BME280;68213;40.528;44.712;2023-09-19T03:53:42;80966.00;;;8.21;71.37
62680;BME280;68213;40.528;44.712;2023-09-19T03:54:43;80963.66;;;8.15;70.89
62680;BME280;68213;40.528;44.712;2023-09-19T03:55:45;80933.34;;;7.92;72.17
62680;BME280;68213;40.528;44.712;2023-09-19T03:56:46;80955.81;;;8.25;71.77
62680;BME280;68213;40.528;44.712;2023-09-19T03:57:50;80961.59;;;8.33;70.87
62680;BME280;68213;40.528;44.712;2023-09-19T03:58:51;80958.81;;;8.41;71.00
62680;BME280;68213;40.528;44.712;2023-09-19T03:59:51;80955.94;;;8.47;69.36
62680;BME280;68213;40.528;44.712;2023-09-19T04:00:56;80956.75;;;8.49;68.93
62680;BME280;68213;40.528;44.712;2023-09-19T04:01:58;80967.91;;;8.60;68.39
62680;BME280;68213;40.528;44.712;2023-09-19T04:02:59;80958.66;;;8.68;67.29
62680;BME280;68213;40.528;44.712;2023-09-19T04:04:02;80957.09;;;8.75;66.90
62680;BME280;68213;40.528;44.712;2023-09-19T04:06:14;80949.38;;;8.77;67.55
62680;BME280;68213;40.528;44.712;2023-09-19T04:07:17;80960.00;;;8.79;65.77
62680;BME280;68213;40.528;44.712;2023-09-19T04:08:20;80955.19;;;8.76;64.98
62680;BME280;68213;40.528;44.712;2023-09-19T04:09:20;80962.50;;;8.67;66.54
62680;BME280;68213;40.528;44.712;2023-09-19T04:10:21;80966.09;;;8.72;67.15
62680;BME280;68213;40.528;44.712;2023-09-19T04:11:22;80963.28;;;8.80;66.94
62680;BME280;68213;40.528;44.712;2023-09-19T04:12:22;80959.00;;;8.84;70.17
62680;BME280;68213;40.528;44.712;2023-09-19T04:13:23;80969.78;;;8.88;69.25
62680;BME280;68213;40.528;44.712;2023-09-19T04:14:24;80971.41;;;8.94;68.07
62680;BME280;68213;40.528;44.712;2023-09-19T04:15:25;80970.84;;;8.95;68.43
62680;BME280;68213;40.528;44.712;2023-09-19T04:16:25;80965.44;;;9.03;69.63
62680;BME280;68213;40.528;44.712;2023-09-19T04:17:26;80963.78;;;9.08;67.53
62680;BME280;68213;40.528;44.712;2023-09-19T04:18:27;80971.09;;;9.09;69.05
62680;BME280;68213;40.528;44.712;2023-09-19T04:19:28;80973.31;;;9.03;69.18
62680;BME280;68213;40.528;44.712;2023-09-19T04:20:29;80967.94;;;9.01;69.33
62680;BME280;68213;40.528;44.712;2023-09-19T04:21:29;80968.31;;;9.07;68.37
62680;BME280;68213;40.528;44.712;2023-09-19T04:22:30;80968.06;;;9.03;68.55
62680;BME280;68213;40.528;44.712;2023-09-19T04:23:32;80966.84;;;8.94;68.31
62680;BME280;68213;40.528;44.712;2023-09-19T04:24:32;80965.31;;;9.01;70.74
62680;BME280;68213;40.528;44.712;2023-09-19T04:25:34;80955.78;;;9.05;69.41
62680;BME280;68213;40.528;44.712;2023-09-19T04:26:34;80966.38;;;9.17;68.88
62680;BME280;68213;40.528;44.712;2023-09-19T04:27:35;80939.22;;;9.03;69.69
62680;BME280;68213;40.528;44.712;2023-09-19T04:28:36;80967.84;;;9.30;70.42
62680;BME280;68213;40.528;44.712;2023-09-19T04:29:39;80967.41;;;9.34;69.21
62680;BME280;68213;40.528;44.712;2023-09-19T04:30:39;80963.66;;;9.37;71.61
62680;BME280;68213;40.528;44.712;2023-09-19T04:31:43;80968.66;;;9.33;69.39
62680;BME280;68213;40.528;44.712;2023-09-19T04:32:45;80965.59;;;9.36;68.58
62680;BME280;68213;40.528;44.712;2023-09-19T04:33:50;80969.16;;;9.41;68.18
62680;BME280;68213;40.528;44.712;2023-09-19T04:34:50;80974.28;;;9.39;67.60
62680;BME280;68213;40.528;44.712;2023-09-19T04:35:53;80967.47;;;9.46;67.29
62680;BME280;68213;40.528;44.712;2023-09-19T04:36:55;80969.78;;;9.51;68.15
62680;BME280;68213;40.528;44.712;2023-09-19T04:37:58;80975.44;;;9.58;67.45
62680;BME280;68213;40.528;44.712;2023-09-19T04:38:59;80971.13;;;9.62;67.54
62680;BME280;68213;40.528;44.712;2023-09-19T04:40:00;80979.38;;;9.68;69.29
62680;BME280;68213;40.528;44.712;2023-09-19T04:41:01;80973.94;;;9.55;68.37
62680;BME280;68213;40.528;44.712;2023-09-19T04:42:02;80973.88;;;9.64;68.26
62680;BME280;68213;40.528;44.712;2023-09-19T04:43:04;80976.75;;;9.68;68.59
62680;BME280;68213;40.528;44.712;2023-09-19T04:44:05;80975.84;;;9.54;67.37
62680;BME280;68213;40.528;44.712;2023-09-19T04:45:10;80950.63;;;9.49;65.91
62680;BME280;68213;40.528;44.712;2023-09-19T04:46:11;80977.59;;;9.71;65.92
62680;BME280;68213;40.528;44.712;2023-09-19T04:47:14;80953.63;;;9.55;66.88
62680;BME280;68213;40.528;44.712;2023-09-19T04:48:16;80970.25;;;9.69;68.01
62680;BME280;68213;40.528;44.712;2023-09-19T04:49:17;80981.41;;;9.80;67.49
62680;BME280;68213;40.528;44.712;2023-09-19T04:50:19;80976.78;;;9.90;65.65
62680;BME280;68213;40.528;44.712;2023-09-19T04:51:21;80974.41;;;9.94;65.79
62680;BME280;68213;40.528;44.712;2023-09-19T04:52:22;80974.34;;;10.04;65.42
62680;BME280;68213;40.528;44.712;2023-09-19T04:53:22;80973.53;;;10.02;65.11
62680;BME280;68213;40.528;44.712;2023-09-19T04:54:23;80970.09;;;9.99;65.11
62680;BME280;68213;40.528;44.712;2023-09-19T04:55:24;80979.03;;;10.06;65.19
62680;BME280;68213;40.528;44.712;2023-09-19T04:56:25;80981.84;;;9.98;65.20
62680;BME280;68213;40.528;44.712;2023-09-19T04:57:25;80977.22;;;10.08;64.87
62680;BME280;68213;40.528;44.712;2023-09-19T04:58:28;80980.47;;;10.19;65.33
62680;BME280;68213;40.528;44.712;2023-09-19T04:59:29;80984.16;;;10.25;65.58
62680;BME280;68213;40.528;44.712;2023-09-19T05:00:30;80984.47;;;10.20;65.90
62680;BME280;68213;40.528;44.712;2023-09-19T05:01:31;80976.66;;;9.88;67.53
62680;BME280;68213;40.528;44.712;2023-09-19T05:02:31;80988.63;;;10.01;67.50
62680;BME280;68213;40.528;44.712;2023-09-19T05:03:32;80982.41;;;10.18;66.32
62680;BME280;68213;40.528;44.712;2023-09-19T05:04:33;80992.72;;;10.04;66.33
62680;BME280;68213;40.528;44.712;2023-09-19T05:05:33;80990.28;;;10.18;66.25
62680;BME280;68213;40.528;44.712;2023-09-19T05:06:35;80991.91;;;10.23;64.04
62680;BME280;68213;40.528;44.712;2023-09-19T05:07:36;80988.53;;;10.11;61.79
62680;BME280;68213;40.528;44.712;2023-09-19T05:08:37;80986.41;;;10.19;63.49
62680;BME280;68213;40.528;44.712;2023-09-19T05:09:38;80987.84;;;10.32;64.20
62680;BME280;68213;40.528;44.712;2023-09-19T05:10:39;80995.00;;;10.41;64.27
62680;BME280;68213;40.528;44.712;2023-09-19T05:11:42;80994.41;;;10.43;64.44
62680;BME280;68213;40.528;44.712;2023-09-19T05:12:44;80993.88;;;10.44;64.44
62680;BME280;68213;40.528;44.712;2023-09-19T05:13:47;80999.38;;;10.48;64.15
62680;BME280;68213;40.528;44.712;2023-09-19T05:14:48;80992.47;;;10.65;64.41
62680;BME280;68213;40.528;44.712;2023-09-19T05:15:49;80986.84;;;10.59;63.20
62680;BME280;68213;40.528;44.712;2023-09-19T05:16:50;81000.63;;;10.81;62.68
62680;BME280;68213;40.528;44.712;2023-09-19T05:17:52;80974.41;;;10.71;62.18
62680;BME280;68213;40.528;44.712;2023-09-19T05:18:55;80996.91;;;10.96;61.91
62680;BME280;68213;40.528;44.712;2023-09-19T05:19:55;80992.53;;;10.89;62.50
62680;BME280;68213;40.528;44.712;2023-09-19T05:20:56;80988.13;;;11.03;61.36
62680;BME280;68213;40.528;44.712;2023-09-19T05:21:57;80996.16;;;10.84;60.39
62680;BME280;68213;40.528;44.712;2023-09-19T05:23:05;81002.03;;;10.94;60.42
62680;BME280;68213;40.528;44.712;2023-09-19T05:24:08;80996.66;;;10.92;60.45
62680;BME280;68213;40.528;44.712;2023-09-19T05:25:09;81000.53;;;10.79;60.93
62680;BME280;68213;40.528;44.712;2023-09-19T05:26:10;81011.22;;;10.71;60.67
62680;BME280;68213;40.528;44.712;2023-09-19T05:27:11;81003.59;;;10.75;60.64
62680;BME280;68213;40.528;44.712;2023-09-19T05:28:15;81012.53;;;10.82;61.37
62680;BME280;68213;40.528;44.712;2023-09-19T05:29:16;80994.47;;;10.88;61.39
62680;BME280;68213;40.528;44.712;2023-09-19T05:30:17;80997.03;;;10.98;61.79
62680;BME280;68213;40.528;44.712;2023-09-19T05:31:18;81003.47;;;11.07;61.26
62680;BME280;68213;40.528;44.712;2023-09-19T05:32:19;80990.97;;;11.07;60.24
62680;BME280;68213;40.528;44.712;2023-09-19T05:33:20;80988.50;;;10.76;59.67
62680;BME280;68213;40.528;44.712;2023-09-19T05:34:20;81009.09;;;10.79;60.20
62680;BME280;68213;40.528;44.712;2023-09-19T05:35:22;81008.09;;;10.63;61.23
62680;BME280;68213;40.528;44.712;2023-09-19T05:36:23;81016.75;;;10.75;61.44
62680;BME280;68213;40.528;44.712;2023-09-19T05:37:23;81011.16;;;10.81;61.01
62680;BME280;68213;40.528;44.712;2023-09-19T05:38:27;81008.00;;;10.94;60.58
62680;BME280;68213;40.528;44.712;2023-09-19T05:39:28;81011.94;;;10.84;60.64
62680;BME280;68213;40.528;44.712;2023-09-19T05:40:28;81010.59;;;10.83;61.46
62680;BME280;68213;40.528;44.712;2023-09-19T05:41:30;81017.22;;;10.84;61.86
62680;BME280;68213;40.528;44.712;2023-09-19T05:42:31;81010.69;;;10.85;60.97
62680;BME280;68213;40.528;44.712;2023-09-19T05:43:34;81013.13;;;10.92;63.42
62680;BME280;68213;40.528;44.712;2023-09-19T05:44:37;81018.75;;;10.99;63.04
62680;BME280;68213;40.528;44.712;2023-09-19T05:45:38;81010.53;;;11.04;61.60
62680;BME280;68213;40.528;44.712;2023-09-19T05:46:41;81014.78;;;11.09;61.22
62680;BME280;68213;40.528;44.712;2023-09-19T05:47:42;81015.59;;;11.12;61.95